Latest Weather Observations for Barimunya

IDW60801

Issued at 4:13 am WST Tuesday 6 December 2022 (issued every 10 minutes, with the page automatically refreshed every 10 minutes)

About weather observations | Map of weather stations | Latest weather observations for WA | Other Formats
Station Details ID: 505053 Name: BARIMUNYA Lat: -22.67 Lon: 119.16 Height: 629.17 m
Data from the previous 72 hours. | See also: Recent months for locations in Western Australia
Date/Time
WST
Temp
°C
App
Temp
°C
Dew
Point
°C
Rel
Hum
%
Delta-T
°C
Wind Press
QNH
hPa
Press
MSL
hPa
Rain since
9am
mm
Dir  Spd
km/h
Gust
km/h
Spd
kts
Gust
kts
06/04:00am 28.7 24.4 3.5 20 13.1 S 15 20 8 11 1009.8 1004.2 0.0
06/03:30am 28.2 24.2 3.1 20 12.9 S 13 15 7 8 1009.8 1004.2 0.0
06/03:00am 28.4 25.2 3.3 20 13.0 SW 9 9 5 5 1009.9 1004.3 0.0
06/02:30am 29.7 26.1 2.9 18 13.8 WSW 11 17 6 9 1009.7 1004.1 0.0
06/02:00am 31.1 26.2 2.3 16 14.9 SW 17 28 9 15 1009.8 1004.2 0.0
06/01:30am 31.6 25.9 2.7 16 15.0 WSW 22 28 12 15 1009.6 1004.0 0.0
06/01:00am 31.6 26.8 2.7 16 15.1 SW 17 22 9 12 1009.9 1004.3 0.0
06/12:30am 32.1 26.9 2.2 15 15.5 WSW 19 26 10 14 1010.0 1004.5 0.0
06/12:00am 32.0 27.1 3.9 17 15.0 W 19 26 10 14 1010.1 1004.6 0.0
 
Date/Time
WST
Temp
°C
App
Temp
°C
Dew
Point
°C
Rel
Hum
%
Delta-T
°C
Wind Press
QNH
hPa
Press
MSL
hPa
Rain since
9am
mm
Dir  Spd
km/h
Gust
km/h
Spd
kts
Gust
kts
05/11:30pm 32.1 28.3 4.0 17 15.0 W 13 17 7 9 1009.9 1004.3 0.0
05/11:00pm 33.7 28.7 3.5 15 16.1 WSW 19 24 10 13 1009.9 1004.3 0.0
05/10:30pm 32.6 30.4 5.2 18 14.9 W 6 7 3 4 1010.0 1004.5 0.0
05/10:00pm 33.8 31.4 5.4 17 15.6 W 7 9 4 5 1009.9 1004.3 0.0
05/09:30pm 34.9 31.4 5.4 16 16.3 WSW 13 15 7 8 1009.7 1004.1 0.0
05/09:00pm 36.0 31.7 5.3 15 17.1 WSW 17 24 9 13 1009.5 1003.9 0.0
05/08:30pm 36.2 32.9 6.4 16 16.8 W 13 19 7 10 1009.2 1003.6 0.0
05/08:00pm 36.0 33.2 7.1 17 16.5 SSW 11 15 6 8 1008.7 1003.2 0.0
05/07:30pm 37.1 32.0 6.2 15 17.5 WSW 22 32 12 17 1008.6 1003.1 0.0
05/07:00pm 36.3 34.2 8.2 18 16.4 NNW 9 19 5 10 1008.3 1002.7 0.0
05/06:33pm 38.1 35.1 7.9 16 17.6 WSW 13 24 7 13 1008.3 1002.7 0.0
05/06:30pm 38.3 35.5 7.1 15 18.0 SW 11 17 6 9 1008.2 1002.6 0.0
05/06:20pm 38.8 35.1 6.5 14 18.5 SSW 15 19 8 10 1008.0 1002.4 0.0
05/06:00pm 39.2 35.0 5.7 13 19.0 SW 17 28 9 15 1007.7 1002.1 0.0
05/05:52pm 39.4 36.0 5.9 13 19.1 WSW 13 20 7 11 1007.5 1001.9 0.0
05/05:42pm 39.6 35.5 6.1 13 19.1 W 17 24 9 13 1007.4 1001.8 0.0
05/05:30pm 39.5 35.4 6.0 13 19.1 WSW 17 26 9 14 1007.3 1001.7 0.0
05/05:00pm 40.0 37.8 6.4 13 19.4 S 7 15 4 8 1007.2 1001.6 0.0
05/04:30pm 39.8 36.5 6.2 13 19.2 WSW 13 19 7 10 1007.3 1001.7 0.0
05/04:00pm 39.7 37.1 6.1 13 19.2 SW 9 17 5 9 1007.5 1001.9 0.0
05/03:30pm 40.5 36.5 6.7 13 19.6 SSW 17 26 9 14 1007.7 1002.1 0.0
05/03:00pm 41.3 38.3 6.2 12 20.3 SSW 11 17 6 9 1007.9 1002.3 0.0
05/02:30pm 39.8 36.5 6.2 13 19.2 SW 13 22 7 12 1008.3 1002.7 0.0
05/02:00pm 41.0 37.2 6.0 12 20.1 SW 15 30 8 16 1008.6 1003.1 0.0
05/01:30pm 39.9 36.6 6.3 13 19.3 WSW 13 30 7 16 1009.1 1003.5 0.0
05/01:00pm 39.3 36.1 6.9 14 18.7 SW 13 24 7 13 1009.7 1004.1 0.0
05/12:30pm 38.5 34.6 7.3 15 18.1 SE 17 24 9 13 1010.1 1004.6 0.0
05/12:00pm 39.3 35.4 6.9 14 18.7 SSW 17 26 9 14 1010.6 1005.0 0.0
05/11:30am 38.9 35.9 7.6 15 18.2 SW 13 24 7 13 1011.1 1005.5 0.0
05/11:00am 37.6 33.6 6.6 15 17.7 S 17 30 9 16 1011.5 1006.0 0.0
05/10:30am 38.2 33.9 7.0 15 17.9 SSW 19 35 10 19 1011.7 1006.2 0.0
05/10:00am 36.8 33.1 7.8 17 16.8 SW 17 28 9 15 1012.0 1006.5 0.0
05/09:30am 36.5 31.4 7.5 17 16.7 S 24 35 13 19 1012.1 1006.6 0.0
05/09:00am 35.6 30.1 7.6 18 16.1 SSW 26 33 14 18 1012.4 1006.8 0.0
05/08:30am 34.8 29.4 7.8 19 15.5 SSW 26 35 14 19 1012.5 1006.9 0.0
05/08:00am 33.9 28.5 7.8 20 14.9 SW 26 35 14 19 1012.4 1006.8 0.0
05/07:30am 33.2 28.2 7.9 21 14.4 SW 24 32 13 17 1012.4 1006.8 0.0
05/07:00am 32.3 26.9 7.9 22 13.9 SW 26 37 14 20 1012.3 1006.7 0.0
05/06:30am 31.4 27.8 8.4 24 13.1 SW 17 26 9 14 1012.0 1006.5 0.0
05/06:00am 30.2 28.0 8.0 25 12.5 WSW 9 17 5 9 1011.7 1006.2 0.0
05/05:30am 29.8 26.9 8.2 26 12.2 SW 13 20 7 11 1011.3 1005.7 0.0
05/05:00am 29.7 26.8 8.2 26 12.1 SW 13 17 7 9 1011.1 1005.5 0.0
05/04:30am 29.7 27.2 8.2 26 12.1 SW 11 15 6 8 1010.9 1005.3 0.0
05/04:00am 29.8 26.4 7.7 25 12.4 SW 15 20 8 11 1010.6 1005.0 0.0
05/03:30am 29.5 25.4 8.0 26 12.1 WSW 19 24 10 13 1010.6 1005.0 0.0
05/03:00am 29.8 26.2 8.2 26 12.2 W 17 22 9 12 1010.4 1004.9 0.0
05/02:30am 29.6 27.4 9.2 28 11.7 W 11 15 6 8 1010.4 1004.9 0.0
05/02:00am 29.7 27.9 9.3 28 11.7 NW 9 13 5 7 1010.4 1004.9 0.0
05/01:30am 30.5 29.1 9.4 27 12.2 N 7 9 4 5 1010.6 1005.0 0.0
05/01:00am 29.9 28.2 9.9 29 11.6 NNW 9 11 5 6 1010.6 1005.0 0.0
05/12:30am 31.2 29.4 9.4 26 12.6 SSW 9 11 5 6 1010.3 1004.8 0.0
05/12:00am 30.7 29.3 9.6 27 12.2 SSW 7 11 4 6 1010.7 1005.1 0.0
 
Date/Time
WST
Temp
°C
App
Temp
°C
Dew
Point
°C
Rel
Hum
%
Delta-T
°C
Wind Press
QNH
hPa
Press
MSL
hPa
Rain since
9am
mm
Dir  Spd
km/h
Gust
km/h
Spd
kts
Gust
kts
04/11:30pm 31.6 29.4 9.2 25 12.9 SSW 11 13 6 7 1010.7 1005.1 0.0
04/11:00pm 32.6 30.4 9.4 24 13.5 SSW 11 15 6 8 1011.0 1005.4 0.0
04/10:30pm 32.5 30.7 9.3 24 13.5 SSW 9 15 5 8 1011.2 1005.6 0.0
04/10:00pm 31.9 29.3 9.4 25 13.1 WNW 13 17 7 9 1010.9 1005.3 0.0
04/09:30pm 32.1 30.6 9.0 24 13.3 W 7 11 4 6 1010.8 1005.2 0.0
04/09:00pm 32.8 31.2 8.9 23 13.8 WSW 7 11 4 6 1010.7 1005.1 0.0
04/08:30pm 33.7 30.1 8.3 21 14.6 WSW 17 24 9 13 1010.3 1004.8 0.0
04/08:00pm 34.3 30.3 8.1 20 15.1 SW 19 28 10 15 1010.1 1004.6 0.0
04/07:30pm 34.5 29.9 8.3 20 15.1 SSW 22 32 12 17 1009.7 1004.1 0.0
04/07:00pm 35.0 31.3 9.4 21 15.1 SSW 19 30 10 16 1009.5 1003.9 0.0
04/06:30pm 36.8 34.2 5.9 15 17.4 W 9 11 5 6 1008.7 1003.2 0.0
04/06:00pm 37.2 32.9 7.2 16 17.3 W 19 22 10 12 1008.4 1002.8 0.0
04/05:30pm 37.6 32.8 7.5 16 17.4 WNW 22 35 12 19 1008.2 1002.6 0.0
04/05:00pm 38.8 35.3 5.4 13 18.9 W 13 19 7 10 1007.9 1002.3 0.0
04/04:30pm 38.6 32.4 6.3 14 18.4 WNW 28 39 15 21 1008.0 1002.4 0.0
04/04:00pm 40.1 35.8 5.3 12 19.7 NNW 17 26 9 14 1007.9 1002.3 0.0
04/03:30pm 40.6 36.9 4.4 11 20.3 NW 13 20 7 11 1008.0 1002.4 0.0
04/03:00pm 41.4 38.5 6.3 12 20.3 N 11 32 6 17 1008.1 1002.5 0.0
04/02:30pm 39.1 35.3 5.7 13 18.9 NNW 15 24 8 13 1008.4 1002.8 0.0
04/02:00pm 38.7 35.2 5.4 13 18.8 NNW 13 22 7 12 1009.0 1003.4 0.0
04/01:30pm 38.7 35.2 5.4 13 18.8 WNW 13 20 7 11 1009.4 1003.8 0.0
04/01:00pm 38.8 35.9 6.5 14 18.5 N 11 22 6 12 1009.6 1004.0 0.0
04/12:30pm 39.6 36.5 7.1 14 18.8 WNW 13 26 7 14 1010.0 1004.5 0.0
04/12:00pm 39.2 36.2 7.8 15 18.4 W 13 22 7 12 1010.4 1004.9 0.0
04/11:30am 38.9 35.9 7.6 15 18.2 NNW 13 22 7 12 1010.9 1005.3 0.0
04/11:00am 37.2 34.7 8.1 17 17.0 W 11 19 6 10 1011.2 1005.6 0.0
04/10:30am 37.0 33.9 8.8 18 16.6 WNW 15 20 8 11 1011.6 1006.1 0.0
04/10:00am 36.1 33.6 8.0 18 16.3 S 11 17 6 9 1011.7 1006.2 0.0
04/09:30am 35.7 32.9 8.5 19 15.8 SSW 13 24 7 13 1011.8 1006.3 0.0
04/09:00am 34.7 31.1 8.4 20 15.2 SW 17 24 9 13 1011.8 1006.3 0.0
04/08:30am 34.1 30.2 8.7 21 14.7 SW 19 26 10 14 1011.9 1006.4 0.0
04/08:00am 33.3 29.8 8.7 22 14.2 SW 17 26 9 14 1011.9 1006.4 0.0
04/07:30am 32.4 28.1 8.0 22 13.9 SW 20 28 11 15 1011.7 1006.2 0.0
04/07:00am 31.5 27.4 8.5 24 13.1 SW 20 24 11 13 1011.5 1006.0 0.0
04/06:30am 30.7 27.5 8.4 25 12.7 SW 15 20 8 11 1011.2 1005.6 0.0
04/06:00am 29.7 26.1 8.2 26 12.1 WSW 17 22 9 12 1010.9 1005.3 0.0
04/05:30am 29.3 25.2 7.8 26 12.0 WSW 19 26 10 14 1010.6 1005.0 0.0
04/05:00am 29.3 25.2 7.8 26 12.0 WSW 19 24 10 13 1010.1 1004.6 0.0
04/04:30am 29.3 25.7 8.4 27 11.8 W 17 22 9 12 1009.7 1004.1 0.0
04/04:00am 29.4 25.3 8.5 27 11.8 W 20 24 11 13 1009.5 1003.9 0.0
04/03:30am 29.8 25.8 8.2 26 12.2 W 19 24 10 13 1009.1 1003.5 0.0
04/03:00am 29.7 26.3 9.3 28 11.7 W 17 20 9 11 1008.9 1003.3 0.0
04/02:30am 29.8 27.5 10.4 30 11.3 NW 13 17 7 9 1008.9 1003.3 0.0
04/02:00am 29.7 28.4 11.2 31 11.0 NNW 9 11 5 6 1009.0 1003.4 0.0
04/01:30am 30.4 29.1 11.4 31 11.3 N 9 13 5 7 1009.2 1003.6 0.0
04/01:00am 30.9 29.2 11.3 30 11.7 NNE 11 15 6 8 1009.4 1003.8 0.0
04/12:30am 31.1 31.0 12.0 31 11.5 N 4 11 2 6 1009.4 1003.8 0.0
04/12:00am 32.0 30.6 12.3 30 12.0 N 11 15 6 8 1009.6 1004.0 0.0
 
Date/Time
WST
Temp
°C
App
Temp
°C
Dew
Point
°C
Rel
Hum
%
Delta-T
°C
Wind Press
QNH
hPa
Press
MSL
hPa
Rain since
9am
mm
Dir  Spd
km/h
Gust
km/h
Spd
kts
Gust
kts
03/11:30pm 32.5 30.0 12.2 29 12.3 NNW 17 24 9 13 1009.8 1004.2 0.0
03/11:00pm 32.9 31.1 12.0 28 12.7 N 13 20 7 11 1010.4 1004.9 0.0
03/10:30pm 33.7 31.7 11.5 26 13.4 NW 13 20 7 11 1010.7 1005.1 0.0
03/10:00pm 34.1 32.1 10.0 23 14.3 SW 11 17 6 9 1010.7 1005.1 0.0
03/09:30pm 34.4 30.4 10.3 23 14.3 NNW 22 33 12 18 1010.1 1004.6 0.0
03/09:00pm 34.9 31.2 6.2 17 16.1 N 15 26 8 14 1009.9 1004.3 0.0
03/08:30pm 33.3 31.2 6.6 19 14.9 NE 7 9 4 5 1009.6 1004.0 0.0
03/08:00pm 33.5 31.6 6.7 19 15.0 W 6 11 3 6 1009.3 1003.7 0.0
03/07:30pm 34.9 34.2 7.1 18 15.8 CALM 0 0 0 0 1009.1 1003.5 0.0
03/07:00pm 36.7 35.6 6.8 16 17.1 W 2 6 1 3 1008.7 1003.2 0.0
03/06:30pm 37.7 35.8 6.6 15 17.7 NNW 6 11 3 6 1008.4 1002.8 0.0
03/06:00pm 38.3 34.9 6.1 14 18.3 N 13 17 7 9 1008.0 1002.4 0.0
03/05:30pm 38.3 35.3 6.1 14 18.3 NNW 11 19 6 10 1007.7 1002.1 0.0
03/05:00pm 38.4 35.1 6.2 14 18.4 NNW 13 19 7 10 1007.6 1002.0 0.0
03/04:30pm 39.0 35.9 5.6 13 18.9 NW 11 19 6 10 1007.4 1001.8 0.0
03/04:00pm 38.7 35.4 6.4 14 18.5 NNE 13 20 7 11 1007.4 1001.8 0.0
03/03:30pm 38.7 36.5 6.4 14 18.5 N 7 15 4 8 1007.5 1001.9 0.0
03/03:00pm 38.7 36.5 6.4 14 18.5 NNW 7 15 4 8 1007.7 1002.1 0.0
03/02:30pm 39.1 35.9 6.7 14 18.6 NW 13 24 7 13 1007.9 1002.3 0.0
03/02:00pm 38.8 34.8 6.5 14 18.5 N 17 22 9 12 1008.1 1002.5 0.0
03/01:30pm 39.9 35.3 6.3 13 19.3 NW 20 39 11 21 1008.6 1003.1 0.0
03/01:10pm 39.1 35.1 6.7 14 18.6 NW 17 35 9 19 1008.7 1003.2 0.0
03/01:00pm 38.9 36.8 6.6 14 18.6 NW 7 19 4 10 1008.9 1003.3 0.0
03/12:30pm 38.9 35.6 6.6 14 18.5 N 13 35 7 19 1009.2 1003.6 0.0
03/12:00pm 38.4 34.1 7.2 15 18.0 NW 19 37 10 20 1009.5 1003.9 0.0
03/11:30am 38.0 34.6 7.8 16 17.6 NNW 15 28 8 15 1009.8 1004.2 0.0
03/11:14am 37.9 35.3 7.7 16 17.5 WNW 11 33 6 18 1010.1 1004.6 0.0
03/11:00am 38.0 36.2 7.8 16 17.6 WNW 7 19 4 10 1010.2 1004.7 0.0
03/10:30am 36.9 33.5 7.8 17 16.8 NW 15 28 8 15 1010.6 1005.0 0.0
03/10:00am 35.6 33.9 7.6 18 16.1 NNW 6 15 3 8 1010.8 1005.2 0.0
03/09:30am 35.5 32.6 8.3 19 15.8 WSW 13 22 7 12 1010.8 1005.2 0.0
03/09:00am 34.9 31.2 7.9 19 15.5 W 17 24 9 13 1010.9 1005.3 0.0
03/08:30am 32.9 28.9 8.4 22 14.1 WSW 19 24 10 13 1010.9 1005.3 0.0
03/08:00am 31.8 27.8 8.1 23 13.5 W 19 24 10 13 1011.0 1005.4 0.0
03/07:30am 31.4 27.2 8.4 24 13.1 W 20 28 11 15 1010.8 1005.2 0.0
03/07:00am 30.7 26.7 8.4 25 12.7 WNW 19 24 10 13 1010.3 1004.8 0.0
03/06:30am 29.2 27.8 10.8 32 10.8 NNW 9 17 5 9 1010.1 1004.6 0.0
03/06:00am 27.7 26.5 11.7 37 9.5 NNW 9 13 5 7 1009.6 1004.0 0.0
03/05:30am 27.1 25.1 11.6 38 9.1 N 13 17 7 9 1009.3 1003.7 0.0
03/05:00am 27.2 24.4 11.3 37 9.3 N 17 22 9 12 1009.0 1003.4 0.0
03/04:30am 27.1 24.4 11.6 38 9.1 N 17 24 9 13 1008.7 1003.2 0.0

Other formats

Comma delimited format used in spreadsheet applications
http://www.bom.gov.au/fwo/IDW60801/IDW60801.99313.axf

JavaScript Object Notation format (JSON) in row-major order
http://www.bom.gov.au/fwo/IDW60801/IDW60801.99313.json

Data quality

Most of these data are generated automatically and are frequently updated. Quality checks on data are not normally performed. It is possible for incorrect values to appear. Refer to information at About Latest Weather Observations and please check the disclaimer before using these data.